createdAt,value
2023-04-19T00:01:12.667Z,11.28
2023-04-19T00:03:44.940Z,11.26
2023-04-19T00:06:17.535Z,11.28
2023-04-19T00:08:49.760Z,11.29
2023-04-19T00:11:22.111Z,11.31
2023-04-19T00:13:54.072Z,11.34
2023-04-19T00:16:26.050Z,11.36
2023-04-19T00:18:58.155Z,11.38
2023-04-19T00:21:31.457Z,11.40
2023-04-19T00:24:04.562Z,11.42
2023-04-19T00:26:36.670Z,11.43
2023-04-19T00:29:09.773Z,11.43
2023-04-19T00:31:42.929Z,11.42
2023-04-19T00:34:15.247Z,11.42
2023-04-19T00:36:47.646Z,11.40
2023-04-19T00:39:20.120Z,11.41
2023-04-19T00:41:53.226Z,11.38
2023-04-19T00:44:25.719Z,11.37
2023-04-19T00:46:58.938Z,11.33
2023-04-19T00:49:31.641Z,11.30
2023-04-19T00:52:04.226Z,11.28
2023-04-19T00:54:36.599Z,11.26
2023-04-19T00:57:08.912Z,11.20
2023-04-19T00:59:41.170Z,11.19
2023-04-19T01:02:13.422Z,11.14
2023-04-19T01:04:46.522Z,11.11
2023-04-19T01:07:19.130Z,11.07
2023-04-19T01:09:51.302Z,11.03
2023-04-19T01:12:25.383Z,10.98
2023-04-19T01:14:58.167Z,10.92
2023-04-19T01:17:32.602Z,10.86
2023-04-19T01:20:07.109Z,10.81
2023-04-19T01:22:40.485Z,10.98
2023-04-19T01:25:12.688Z,10.74
2023-04-19T01:27:46.533Z,10.68
2023-04-19T01:30:18.884Z,10.62
2023-04-19T01:32:51.864Z,10.59
2023-04-19T01:35:25.456Z,10.55
2023-04-19T01:37:57.587Z,10.52
2023-04-19T01:40:29.875Z,10.48
2023-04-19T01:43:03.100Z,10.46
2023-04-19T01:45:36.384Z,10.46
2023-04-19T01:48:08.741Z,10.43
2023-04-19T01:50:40.903Z,10.42
2023-04-19T01:53:13.166Z,10.41
2023-04-19T01:55:45.642Z,10.42
2023-04-19T01:58:18.125Z,10.42
2023-04-19T02:00:50.534Z,10.43
2023-04-19T02:03:22.925Z,10.44
2023-04-19T02:05:55.523Z,10.44
2023-04-19T02:08:28.810Z,10.45
2023-04-19T02:11:00.967Z,10.45
2023-04-19T02:13:33.268Z,10.44
2023-04-19T02:16:06.237Z,10.45
2023-04-19T02:18:39.694Z,10.45
2023-04-19T02:21:12.753Z,10.46
2023-04-19T02:23:44.885Z,10.46
2023-04-19T02:26:16.989Z,10.49
2023-04-19T02:28:49.340Z,10.49
2023-04-19T02:31:21.857Z,10.51
2023-04-19T02:33:55.480Z,10.53
2023-04-19T02:36:27.779Z,10.55
2023-04-19T02:38:59.860Z,10.56
2023-04-19T02:41:32.179Z,10.57
2023-04-19T02:44:06.173Z,10.59
2023-04-19T02:46:38.836Z,10.61
2023-04-19T02:49:11.268Z,10.62
2023-04-19T02:51:43.470Z,10.64
2023-04-19T02:54:16.520Z,10.67
2023-04-19T02:56:49.251Z,10.68
2023-04-19T02:59:21.716Z,10.71
2023-04-19T03:01:53.885Z,10.73
2023-04-19T03:04:25.958Z,10.76
2023-04-19T03:06:59.517Z,10.80
2023-04-19T03:09:32.270Z,10.83
2023-04-19T03:12:04.545Z,10.84
2023-04-19T03:14:36.935Z,10.86
2023-04-19T03:17:09.538Z,10.87
2023-04-19T03:19:41.931Z,10.91
2023-04-19T03:22:14.164Z,10.93
2023-04-19T03:24:47.255Z,10.95
2023-04-19T03:27:24.226Z,10.98
2023-04-19T03:29:58.372Z,11.03
2023-04-19T03:32:33.741Z,11.08
2023-04-19T03:35:07.325Z,11.13
2023-04-19T03:37:39.490Z,11.16
2023-04-19T03:40:12.464Z,11.19
2023-04-19T03:42:45.218Z,11.22
2023-04-19T03:45:18.929Z,11.27
2023-04-19T03:47:52.096Z,11.31
2023-04-19T03:50:24.642Z,11.35
2023-04-19T03:52:57.566Z,11.39
2023-04-19T03:55:29.941Z,11.46
2023-04-19T03:58:02.920Z,11.54
2023-04-19T04:00:37.937Z,11.61
2023-04-19T04:03:10.331Z,11.68
2023-04-19T04:05:43.729Z,11.72
2023-04-19T04:08:16.109Z,11.78
2023-04-19T04:10:48.724Z,11.84
2023-04-19T04:13:21.589Z,11.90
2023-04-19T04:15:55.624Z,11.98
2023-04-19T04:18:28.680Z,12.05
2023-04-19T04:21:01.276Z,12.13
2023-04-19T04:23:34.361Z,12.22
2023-04-19T04:26:10.273Z,12.29
2023-04-19T04:28:44.383Z,12.37
2023-04-19T04:31:18.405Z,12.48
2023-04-19T04:33:51.149Z,12.59
2023-04-19T04:36:26.546Z,12.68
2023-04-19T04:39:01.395Z,12.83
2023-04-19T04:41:33.440Z,13.12
2023-04-19T04:44:12.645Z,13.09
2023-04-19T04:46:40.258Z,13.18
2023-04-19T04:49:13.728Z,13.25
2023-04-19T04:51:48.721Z,13.27
2023-04-19T04:54:21.252Z,13.28
2023-04-19T04:56:53.818Z,13.28
2023-04-19T04:59:26.969Z,13.26
2023-04-19T05:02:02.083Z,13.23
2023-04-19T05:04:34.573Z,13.20
2023-04-19T05:07:08.555Z,13.14
2023-04-19T05:09:42.403Z,13.13
2023-04-19T05:12:15.669Z,13.15
2023-04-19T05:14:48.191Z,13.15
2023-04-19T05:17:21.293Z,13.20
2023-04-19T05:19:53.633Z,13.23
2023-04-19T05:22:26.494Z,13.25
2023-04-19T05:24:59.115Z,13.29
2023-04-19T05:27:33.376Z,13.29
2023-04-19T05:30:07.905Z,13.34
2023-04-19T05:32:42.260Z,13.35
2023-04-19T05:35:15.940Z,13.38
2023-04-19T05:37:48.730Z,13.37
2023-04-19T05:40:21.190Z,13.44
2023-04-19T05:42:53.319Z,13.62
2023-04-19T05:45:27.135Z,13.84
2023-04-19T05:47:59.771Z,14.07
2023-04-19T05:50:40.578Z,14.19
2023-04-19T05:53:14.458Z,14.23
2023-04-19T05:55:48.313Z,14.35
2023-04-19T05:58:21.024Z,14.65
2023-04-19T06:00:53.997Z,15.39
2023-04-19T06:03:28.820Z,16.19
2023-04-19T06:06:00.826Z,16.59
2023-04-19T06:08:33.297Z,17.18
2023-04-19T06:11:15.854Z,17.46
2023-04-19T06:13:39.814Z,17.54
2023-04-19T06:16:12.284Z,17.79
2023-04-19T06:18:44.791Z,18.12
2023-04-19T06:21:17.089Z,18.73
2023-04-19T06:23:49.617Z,19.24
2023-04-19T06:26:22.364Z,19.48
2023-04-19T06:28:54.834Z,19.51
2023-04-19T06:31:27.267Z,19.81
2023-04-19T06:33:59.286Z,20.11
2023-04-19T06:36:31.621Z,20.63
2023-04-19T06:39:04.660Z,21.23
2023-04-19T06:41:37.128Z,21.51
2023-04-19T06:44:10.782Z,21.85
2023-04-19T06:46:43.914Z,22.26
2023-04-19T06:49:16.144Z,22.83
2023-04-19T06:51:48.092Z,23.10
2023-04-19T06:54:20.611Z,23.49
2023-04-19T06:56:53.204Z,24.14
2023-04-19T06:59:27.373Z,24.57
2023-04-19T07:01:59.460Z,24.87
2023-04-19T07:04:31.675Z,25.77
2023-04-19T07:07:04.296Z,25.81
2023-04-19T07:09:36.945Z,26.51
2023-04-19T07:12:09.374Z,26.69
2023-04-19T07:14:41.499Z,26.16
2023-04-19T07:17:14.537Z,25.39
2023-04-19T07:19:51.319Z,24.50
2023-04-19T07:22:23.898Z,23.64
2023-04-19T07:24:56.704Z,22.91
2023-04-19T07:27:29.096Z,22.20
2023-04-19T07:30:01.836Z,21.68
2023-04-19T07:32:34.829Z,21.19
2023-04-19T07:35:07.768Z,20.83
2023-04-19T07:37:40.431Z,20.53
2023-04-19T07:40:13.539Z,20.23
2023-04-19T07:42:45.948Z,20.03
2023-04-19T07:45:18.416Z,19.84
2023-04-19T07:47:51.059Z,19.67
2023-04-19T07:50:23.390Z,19.46
2023-04-19T07:52:57.140Z,19.32
2023-04-19T07:55:30.311Z,19.16
2023-04-19T07:58:03.400Z,19.02
2023-04-19T08:00:36.877Z,18.87
2023-04-19T08:03:09.421Z,18.77
2023-04-19T08:05:42.249Z,18.71
2023-04-19T08:08:14.566Z,18.63
2023-04-19T08:10:46.935Z,18.58
2023-04-19T08:13:19.350Z,18.56
2023-04-19T08:16:26.822Z,18.58
2023-04-19T08:18:27.034Z,18.62
2023-04-19T08:21:00.306Z,18.68
2023-04-19T08:23:45.037Z,18.68
2023-04-19T08:26:06.765Z,18.72
2023-04-19T08:28:39.209Z,18.75
2023-04-19T08:31:11.533Z,18.79
2023-04-19T08:33:43.876Z,18.88
2023-04-19T08:36:21.960Z,18.97
2023-04-19T08:39:01.861Z,19.04
2023-04-19T08:41:27.887Z,19.07
2023-04-19T08:44:01.181Z,19.08
2023-04-19T08:46:33.664Z,19.04
2023-04-19T08:49:07.634Z,19.02
2023-04-19T08:51:41.244Z,19.11
2023-04-19T08:54:13.576Z,19.20
2023-04-19T08:56:45.508Z,19.27
2023-04-19T08:59:20.744Z,19.33
2023-04-19T09:01:52.136Z,19.37
2023-04-19T09:04:36.571Z,19.44
2023-04-19T09:06:58.563Z,19.52
2023-04-19T09:12:09.454Z,19.56
2023-04-19T09:14:53.867Z,19.59
2023-04-19T09:17:18.979Z,19.58
2023-04-19T09:19:51.807Z,19.64
2023-04-19T09:22:24.835Z,19.63
2023-04-19T09:27:40.402Z,19.59
2023-04-19T09:30:24.124Z,19.55
2023-04-19T09:32:49.695Z,19.41
2023-04-19T09:35:26.476Z,19.33
2023-04-19T09:38:06.738Z,19.29
2023-04-19T09:40:37.639Z,19.28
2023-04-19T09:43:29.111Z,19.29
2023-04-19T09:45:48.174Z,19.24
2023-04-19T09:48:21.675Z,19.14
2023-04-19T09:51:00.824Z,19.06
2023-04-19T09:53:44.679Z,19.00
2023-04-19T09:56:17.708Z,19.01
2023-04-19T09:58:54.538Z,19.05
2023-04-19T10:01:26.824Z,19.02
2023-04-19T10:04:14.466Z,18.97
2023-04-19T10:06:46.302Z,18.98
2023-04-19T10:09:08.845Z,18.96
2023-04-19T10:11:42.937Z,18.91
2023-04-19T10:14:16.963Z,18.90
2023-04-19T10:16:49.821Z,18.95
2023-04-19T10:19:23.694Z,19.00
2023-04-19T10:21:56.677Z,19.05
2023-04-19T10:24:28.909Z,19.09
2023-04-19T10:27:12.762Z,19.16
2023-04-19T10:30:02.004Z,19.22
2023-04-19T10:32:46.464Z,19.28
2023-04-19T10:35:29.938Z,19.29
2023-04-19T10:38:07.947Z,19.29
2023-04-19T10:40:57.478Z,19.24
2023-04-19T10:43:34.637Z,19.23
2023-04-19T10:46:12.029Z,19.25
2023-04-19T10:49:01.112Z,19.30
2023-04-19T10:51:42.485Z,19.28
2023-04-19T10:54:37.968Z,19.20
2023-04-19T10:57:12.031Z,19.19
2023-04-19T10:59:44.502Z,19.45
2023-04-19T11:02:32.114Z,19.16
2023-04-19T11:05:04.637Z,19.14
2023-04-19T11:07:39.023Z,19.12
2023-04-19T11:10:12.603Z,19.16
2023-04-19T11:12:45.910Z,19.24
2023-04-19T11:15:18.381Z,19.30
2023-04-19T11:18:04.980Z,19.33
2023-04-19T11:20:26.991Z,19.38
2023-04-19T11:23:00.758Z,19.41
2023-04-19T11:25:34.192Z,19.43
2023-04-19T11:28:06.733Z,19.49
2023-04-19T11:30:39.425Z,19.58
2023-04-19T11:33:13.740Z,19.65
2023-04-19T11:35:46.169Z,19.84
2023-04-19T11:38:18.218Z,19.98
2023-04-19T11:40:52.074Z,20.06
2023-04-19T11:43:24.301Z,20.07
2023-04-19T11:45:56.816Z,20.13
2023-04-19T11:48:29.266Z,20.15
2023-04-19T11:51:02.275Z,20.19
2023-04-19T11:53:35.329Z,20.29
2023-04-19T11:56:09.227Z,20.39
2023-04-19T11:58:45.328Z,20.34
2023-04-19T12:01:22.829Z,20.34
2023-04-19T12:03:59.523Z,20.30
2023-04-19T12:06:32.646Z,20.28
2023-04-19T12:09:08.077Z,20.41
2023-04-19T12:11:49.882Z,20.93
2023-04-19T12:14:23.910Z,21.99
2023-04-19T12:17:10.543Z,23.91
2023-04-19T12:19:47.994Z,25.92
2023-04-19T12:22:21.367Z,27.93
2023-04-19T12:24:55.526Z,29.96
2023-04-19T12:27:27.739Z,31.52
2023-04-19T12:29:59.608Z,31.66
2023-04-19T12:32:33.344Z,30.41
2023-04-19T12:35:05.798Z,30.45
2023-04-19T12:37:38.146Z,31.64
2023-04-19T12:40:11.101Z,32.91
2023-04-19T12:42:43.543Z,34.42
2023-04-19T12:45:15.844Z,36.09
2023-04-19T12:47:49.380Z,37.64
2023-04-19T12:50:22.161Z,39.09
2023-04-19T12:52:54.877Z,40.09
2023-04-19T12:55:27.162Z,40.60
2023-04-19T12:57:59.471Z,40.73
2023-04-19T13:00:31.541Z,41.07
2023-04-19T13:03:03.849Z,41.18
2023-04-19T13:05:36.443Z,41.32
2023-04-19T13:08:08.503Z,41.19
2023-04-19T13:10:40.493Z,40.81
2023-04-19T13:13:12.812Z,40.62
2023-04-19T13:15:46.004Z,40.36
2023-04-19T13:18:18.506Z,38.15
2023-04-19T13:20:51.689Z,35.54
2023-04-19T13:23:24.026Z,32.91
2023-04-19T13:25:56.768Z,30.70
2023-04-19T13:28:30.810Z,29.00
2023-04-19T13:31:03.327Z,28.33
2023-04-19T13:33:35.711Z,27.47
2023-04-19T13:36:08.837Z,28.55
2023-04-19T13:38:40.864Z,29.94
2023-04-19T13:41:13.731Z,31.60
2023-04-19T13:43:46.174Z,33.50
2023-04-19T13:46:18.262Z,35.00
2023-04-19T13:48:50.348Z,36.13
2023-04-19T13:51:22.544Z,36.41
2023-04-19T13:53:55.588Z,36.95
2023-04-19T13:56:27.948Z,36.31
2023-04-19T13:59:00.059Z,34.20
2023-04-19T14:01:32.551Z,32.61
2023-04-19T14:04:05.373Z,31.24
2023-04-19T14:06:37.843Z,31.58
2023-04-19T14:09:09.952Z,32.88
2023-04-19T14:11:42.226Z,33.03
2023-04-19T14:14:15.058Z,32.49
2023-04-19T14:16:47.701Z,32.82
2023-04-19T14:19:19.857Z,33.35
2023-04-19T14:21:52.524Z,33.65
2023-04-19T14:24:24.573Z,32.37
2023-04-19T14:27:10.360Z,30.64
2023-04-19T14:29:32.642Z,30.73
2023-04-19T14:32:13.454Z,31.48
2023-04-19T14:34:38.912Z,32.32
2023-04-19T14:37:11.399Z,33.23
2023-04-19T14:39:43.515Z,34.07
2023-04-19T14:42:16.118Z,34.67
2023-04-19T14:44:48.716Z,35.06
2023-04-19T14:47:21.933Z,34.92
2023-04-19T14:49:54.442Z,33.74
2023-04-19T14:52:26.987Z,31.91
2023-04-19T14:55:00.327Z,29.88
2023-04-19T14:57:33.510Z,28.02
2023-04-19T15:00:06.852Z,26.63
2023-04-19T15:02:40.062Z,25.46
2023-04-19T15:05:12.647Z,24.73
2023-04-19T15:07:45.180Z,24.15
2023-04-19T15:10:17.730Z,23.69
2023-04-19T15:12:50.636Z,23.36
2023-04-19T15:15:23.105Z,23.02
2023-04-19T15:17:55.773Z,22.73
2023-04-19T15:20:28.168Z,22.46
2023-04-19T15:23:00.362Z,22.12
2023-04-19T15:25:32.563Z,21.83
2023-04-19T15:28:04.886Z,21.57
2023-04-19T15:30:37.163Z,21.28
2023-04-19T15:33:09.653Z,21.00
2023-04-19T15:35:42.416Z,20.73
2023-04-19T15:38:14.665Z,20.44
2023-04-19T15:40:46.971Z,20.21
2023-04-19T15:43:19.245Z,20.00
2023-04-19T15:45:51.712Z,19.79
2023-04-19T15:48:24.046Z,19.62
2023-04-19T15:50:56.094Z,19.42
2023-04-19T15:53:28.805Z,19.25
2023-04-19T15:56:01.506Z,19.08
2023-04-19T15:58:33.572Z,18.91
2023-04-19T16:01:07.491Z,18.77
2023-04-19T16:03:39.913Z,18.63
2023-04-19T16:06:12.303Z,18.49
2023-04-19T16:08:44.496Z,18.32
2023-04-19T16:11:16.693Z,18.16
2023-04-19T16:13:49.293Z,18.04
2023-04-19T16:16:21.518Z,17.89
2023-04-19T16:18:53.686Z,17.76
2023-04-19T16:21:27.791Z,17.63
2023-04-19T16:24:01.374Z,17.49
2023-04-19T16:26:33.438Z,17.37
2023-04-19T16:29:06.233Z,17.23
2023-04-19T16:31:38.449Z,17.09
2023-04-19T16:34:10.878Z,16.97
2023-04-19T16:36:44.896Z,16.82
2023-04-19T16:39:17.121Z,16.72
2023-04-19T16:41:49.719Z,16.61
2023-04-19T16:44:22.519Z,16.47
2023-04-19T16:46:55.522Z,16.37
2023-04-19T16:49:28.346Z,16.24
2023-04-19T16:52:00.539Z,16.12
2023-04-19T16:54:32.707Z,16.00
2023-04-19T16:57:05.124Z,15.90
2023-04-19T16:59:37.456Z,15.79
2023-04-19T17:02:11.180Z,15.72
2023-04-19T17:04:44.128Z,15.65
2023-04-19T17:07:16.658Z,15.59
2023-04-19T17:09:49.026Z,15.54
2023-04-19T17:12:21.768Z,15.40
2023-04-19T17:14:53.960Z,15.39
2023-04-19T17:17:26.213Z,15.31
2023-04-19T17:19:58.400Z,15.25
2023-04-19T17:22:30.627Z,15.19
2023-04-19T17:25:03.666Z,15.15
2023-04-19T17:27:36.331Z,15.09
2023-04-19T17:30:09.581Z,15.07
2023-04-19T17:32:42.474Z,15.02
2023-04-19T17:35:15.471Z,14.98
2023-04-19T17:37:47.758Z,14.91
2023-04-19T17:40:20.060Z,14.85
2023-04-19T17:42:52.339Z,14.83
2023-04-19T17:45:25.129Z,14.81
2023-04-19T17:47:57.486Z,14.77
2023-04-19T17:50:30.230Z,14.74
2023-04-19T17:53:02.455Z,14.70
2023-04-19T17:55:34.588Z,14.67
2023-04-19T17:58:06.968Z,14.67
2023-04-19T18:00:39.451Z,14.63
2023-04-19T18:03:11.855Z,14.60
2023-04-19T18:05:44.658Z,14.58
2023-04-19T18:08:16.985Z,14.53
2023-04-19T18:10:48.966Z,14.48
2023-04-19T18:13:20.999Z,14.43
2023-04-19T18:15:53.452Z,14.37
2023-04-19T18:18:27.426Z,14.32
2023-04-19T18:21:00.005Z,14.29
2023-04-19T18:23:32.141Z,14.25
2023-04-19T18:26:04.979Z,14.20
2023-04-19T18:28:37.712Z,14.17
2023-04-19T18:31:10.476Z,14.13
2023-04-19T18:33:42.764Z,14.08
2023-04-19T18:36:14.917Z,14.05
2023-04-19T18:38:47.141Z,14.03
2023-04-19T18:41:19.147Z,14.00
2023-04-19T18:44:13.612Z,13.96
2023-04-19T18:46:27.808Z,13.89
2023-04-19T18:49:00.056Z,13.85
2023-04-19T18:51:33.009Z,13.83
2023-04-19T18:54:05.632Z,13.82
2023-04-19T18:59:11.880Z,13.75
2023-04-19T19:01:45.391Z,13.72
2023-04-19T19:04:33.941Z,13.66
2023-04-19T19:07:00.254Z,13.64
2023-04-19T19:09:30.912Z,13.60
2023-04-19T19:12:03.011Z,13.55
2023-04-19T19:14:35.952Z,13.51
2023-04-19T19:17:08.164Z,13.51
2023-04-19T19:19:40.474Z,13.46
2023-04-19T19:22:25.252Z,13.42
2023-04-19T19:24:46.773Z,13.36
2023-04-19T19:27:18.871Z,13.33
2023-04-19T19:29:51.092Z,13.28
2023-04-19T19:32:23.356Z,13.26
2023-04-19T19:35:00.910Z,13.25
2023-04-19T19:37:29.365Z,13.21
2023-04-19T19:40:04.506Z,13.20
2023-04-19T19:42:36.035Z,13.20
2023-04-19T19:45:09.492Z,13.20
2023-04-19T19:47:45.484Z,13.17
2023-04-19T19:52:49.578Z,13.09
2023-04-19T19:55:22.066Z,13.01
2023-04-19T20:03:02.264Z,12.85
2023-04-19T20:05:35.074Z,12.80
2023-04-19T20:08:10.482Z,12.75
2023-04-19T20:10:43.927Z,12.71
2023-04-19T20:13:16.256Z,12.69
2023-04-19T20:15:48.443Z,12.67
2023-04-19T20:18:21.246Z,12.64
2023-04-19T20:20:53.310Z,12.66
2023-04-19T20:23:25.510Z,12.63
2023-04-19T20:25:59.162Z,12.61
2023-04-19T20:28:31.174Z,12.59
2023-04-19T20:31:03.349Z,12.57
2023-04-19T20:33:36.089Z,12.53
2023-04-19T20:36:09.782Z,12.49
2023-04-19T20:38:42.163Z,12.47
2023-04-19T20:41:14.363Z,12.48
2023-04-19T20:43:46.609Z,12.43
2023-04-19T20:46:18.776Z,12.38
2023-04-19T20:48:51.093Z,12.33
2023-04-19T20:51:23.247Z,12.32
2023-04-19T20:53:55.587Z,12.31
2023-04-19T20:56:27.704Z,12.29
2023-04-19T20:58:59.960Z,12.27
2023-04-19T21:01:32.233Z,12.27
2023-04-19T21:04:05.230Z,12.23
2023-04-19T21:06:37.640Z,12.21
2023-04-19T21:09:09.885Z,12.18
2023-04-19T21:11:42.042Z,12.16
2023-04-19T21:14:14.056Z,12.14
2023-04-19T21:16:46.487Z,12.11
2023-04-19T21:19:18.985Z,12.10
2023-04-19T21:21:51.165Z,12.11
2023-04-19T21:24:23.495Z,12.12
2023-04-19T21:26:55.924Z,12.12
2023-04-19T21:29:27.925Z,12.08
2023-04-19T21:32:00.380Z,12.07
2023-04-19T21:34:32.760Z,12.05
2023-04-19T21:37:04.675Z,11.98
2023-04-19T21:39:36.817Z,11.94
2023-04-19T21:42:08.921Z,11.89
2023-04-19T21:44:41.016Z,11.89
2023-04-19T21:47:13.771Z,11.91
2023-04-19T21:49:47.215Z,11.90
2023-04-19T21:52:19.345Z,11.89
2023-04-19T21:54:51.447Z,11.84
2023-04-19T21:57:24.732Z,11.80
2023-04-19T21:59:56.946Z,11.74
2023-04-19T22:02:29.657Z,11.69
2023-04-19T22:05:01.994Z,11.65
2023-04-19T22:07:36.035Z,11.63
2023-04-19T22:10:09.660Z,11.63
2023-04-19T22:12:55.033Z,11.61
2023-04-19T22:15:16.353Z,11.59
2023-04-19T22:17:48.460Z,11.55
2023-04-19T22:20:21.302Z,11.53
2023-04-19T22:22:53.663Z,11.48
2023-04-19T22:25:25.845Z,11.43
2023-04-19T22:27:57.946Z,11.39
2023-04-19T22:30:29.894Z,11.37
2023-04-19T22:33:02.123Z,11.31
2023-04-19T22:35:34.252Z,11.26
2023-04-19T22:38:06.525Z,11.22
2023-04-19T22:40:38.786Z,11.17
2023-04-19T22:43:11.128Z,11.09
2023-04-19T22:45:45.671Z,11.04
2023-04-19T22:48:17.384Z,10.99
2023-04-19T22:50:50.420Z,11.11
2023-04-19T22:53:22.560Z,10.94
2023-04-19T22:55:55.004Z,10.93
2023-04-19T22:58:27.228Z,10.89
2023-04-19T23:00:59.280Z,10.89
2023-04-19T23:03:31.589Z,10.89
2023-04-19T23:06:04.193Z,10.86
2023-04-19T23:08:36.776Z,10.86
2023-04-19T23:11:10.203Z,10.84
2023-04-19T23:13:42.290Z,10.81
2023-04-19T23:16:14.538Z,10.81
2023-04-19T23:18:46.996Z,10.83
2023-04-19T23:21:19.209Z,10.83
2023-04-19T23:23:51.990Z,10.84
2023-04-19T23:26:24.125Z,10.84
2023-04-19T23:28:56.350Z,10.84
2023-04-19T23:31:28.542Z,10.83
2023-04-19T23:34:00.776Z,10.81
2023-04-19T23:36:32.841Z,10.76
2023-04-19T23:39:05.209Z,10.73
2023-04-19T23:41:37.476Z,10.69
2023-04-19T23:44:09.795Z,10.64
2023-04-19T23:46:41.999Z,10.61
2023-04-19T23:49:14.004Z,10.57
2023-04-19T23:51:47.634Z,10.53
2023-04-19T23:54:21.456Z,10.47
2023-04-19T23:56:54.746Z,10.44
2023-04-19T23:59:29.977Z,10.39
